Time;durP1;ratioP1;P1;durP2;ratioP2;P2;SDS_P1;SDS_P2;PMS_P1;PMS_P2;Temp;Humidity;BMP_temperature;BMP_pressure;BME280_temperature;BME280_humidity;BME280_pressure;Samples;Min_cycle;Max_cycle;Signal;HPM_P1;HPM_P2
2021/12/05 00:16:56;;;;;;;1.23;0.35;;;;;;;13.01;46.66;98943.09;3982907;32;15024933;-68
2021/12/05 00:18:23;;;;;;;3.00;0.37;;;;;;;12.99;47.04;98954.06;4430548;32;20583;-68
2021/12/05 00:23:39;;;;;;;0.60;0.10;;;;;;;13.18;46.32;98950.44;4432154;32;20022;-68
2021/12/05 00:26:06;;;;;;;0.75;0.20;;;;;;;13.35;45.67;98944.94;4436223;32;20053;-68
2021/12/05 00:28:50;;;;;;;0.55;0.17;;;;;;;13.31;46.45;98950.81;4431297;32;20081;-68
2021/12/05 00:37:31;;;;;;;2.70;0.20;;;;;;;13.64;45.07;98975.75;4436878;32;20096;-69
2021/12/05 00:59:15;;;;;;;0.45;0.30;;;;;;;13.83;44.90;99008.81;3983365;32;15025812;-69
2021/12/05 01:17:07;;;;;;;0.50;0.10;;;;;;;14.19;43.63;99049.69;3982333;32;15030540;-67
2021/12/05 01:19:34;;;;;;;2.20;0.20;;;;;;;14.19;43.63;99049.69;4438346;32;20096;-68
2021/12/05 01:22:06;;;;;;;0.55;0.13;;;;;;;14.22;43.42;99047.91;4438178;32;20092;-69
2021/12/05 01:25:20;;;;;;;0.40;0.10;;;;;;;14.33;42.88;99057.25;4438376;32;20373;-70
2021/12/05 01:27:35;;;;;;;1.10;0.20;;;;;;;14.19;43.45;99060.22;4437278;32;20136;-70
2021/12/05 01:30:12;;;;;;;2.22;0.10;;;;;;;13.61;44.07;99065.16;4435548;32;20056;-70
2021/12/05 02:33:26;;;;;;;1.25;0.30;;;;;;;14.18;43.65;99169.78;3981134;32;15024145;-69
2021/12/05 02:35:56;;;;;;;0.70;0.30;;;;;;;14.18;43.65;99169.78;4431750;32;20037;-69
2021/12/05 02:43:40;;;;;;;1.95;0.32;;;;;;;13.79;44.29;99203.34;3954338;32;15722177;-69
2021/12/05 02:46:07;;;;;;;1.50;0.30;;;;;;;13.79;44.29;99203.34;4433622;32;20071;-69
2021/12/05 02:48:36;;;;;;;2.42;0.55;;;;;;;13.78;44.27;99207.41;4433134;32;20076;-69
2021/12/05 02:51:07;;;;;;;1.73;0.30;;;;;;;13.78;44.09;99203.84;4430579;32;20070;-69
2021/12/05 02:53:40;;;;;;;0.82;0.30;;;;;;;13.93;43.78;99210.19;4433450;32;20049;-69
2021/12/05 02:56:07;;;;;;;1.23;0.25;;;;;;;13.91;43.73;99202.19;4432610;32;20049;-69
2021/12/05 02:58:45;;;;;;;1.02;0.47;;;;;;;13.54;44.27;99212.56;4430816;32;20046;-69
2021/12/05 03:01:21;;;;;;;0.85;0.28;;;;;;;12.72;45.94;99212.16;4431189;32;20049;-69
2021/12/05 03:03:48;;;;;;;3.28;0.88;;;;;;;13.40;45.24;99223.91;4431556;32;20060;-69
2021/12/05 03:06:21;;;;;;;0.75;0.40;;;;;;;13.44;45.19;99232.97;4432570;32;20115;-69
2021/12/05 03:08:50;;;;;;;0.68;0.32;;;;;;;13.28;45.50;99242.78;4431962;32;20048;-69
2021/12/05 03:11:16;;;;;;;1.33;0.22;;;;;;;13.19;45.77;99242.91;4428957;32;20438;-69
2021/12/05 03:13:42;;;;;;;0.77;0.20;;;;;;;13.54;45.09;99238.00;4434550;32;20154;-70
2021/12/05 03:16:10;;;;;;;1.77;0.32;;;;;;;13.19;45.19;99236.50;4430640;32;20092;-69
2021/12/05 03:18:37;;;;;;;0.77;0.30;;;;;;;13.44;44.81;99241.44;4432512;32;20077;-69
2021/12/05 03:21:04;;;;;;;0.60;0.20;;;;;;;13.58;44.51;99243.41;4433442;32;20082;-69
2021/12/05 03:23:31;;;;;;;2.35;0.20;;;;;;;13.53;44.29;99255.44;4433032;32;20073;-69
2021/12/05 03:25:57;;;;;;;0.80;0.30;;;;;;;13.50;44.54;99264.91;4430890;32;20482;-69
2021/12/05 03:28:24;;;;;;;1.58;0.30;;;;;;;13.16;45.20;99254.44;4434509;32;20102;-69
2021/12/05 03:30:50;;;;;;;0.22;0.13;;;;;;;13.53;44.39;99275.22;4427258;32;20410;-69
2021/12/05 03:33:16;;;;;;;1.12;0.20;;;;;;;13.20;44.96;99274.75;4429516;32;20134;-69
2021/12/05 03:35:42;;;;;;;0.30;0.20;;;;;;;13.03;45.10;99271.69;4429209;32;20033;-69
2021/12/05 03:38:08;;;;;;;1.05;0.20;;;;;;;12.98;45.20;99271.56;4430908;32;20080;-69
2021/12/05 03:40:35;;;;;;;2.08;0.30;;;;;;;13.19;44.81;99268.31;4429737;32;20101;-69
2021/12/05 03:43:04;;;;;;;1.45;0.17;;;;;;;13.11;45.04;99284.13;4432709;32;20113;-68
2021/12/05 03:45:34;;;;;;;0.73;0.30;;;;;;;13.03;44.99;99277.34;4431161;32;20030;-68
2021/12/05 03:48:02;;;;;;;0.40;0.10;;;;;;;12.99;45.04;99282.41;4429342;32;20085;-68
2021/12/05 03:50:28;;;;;;;0.30;0.28;;;;;;;12.54;46.01;99290.59;4430455;32;20076;-68
2021/12/05 03:52:54;;;;;;;1.33;0.25;;;;;;;13.10;44.79;99293.88;4430558;32;20114;-68
2021/12/05 03:55:22;;;;;;;2.90;0.22;;;;;;;13.01;45.07;99293.97;4418618;32;20052;-68
2021/12/05 03:57:48;;;;;;;0.30;0.10;;;;;;;13.27;44.41;99308.25;4421333;32;20152;-68
2021/12/05 04:00:21;;;;;;;0.30;0.10;;;;;;;13.02;44.65;99311.72;4417964;32;20111;-69
2021/12/05 04:02:49;;;;;;;0.45;0.30;;;;;;;14.07;42.94;99314.72;4422017;32;20134;-68
2021/12/05 04:05:15;;;;;;;0.62;0.25;;;;;;;13.40;44.18;99309.47;4422951;32;20037;-68
2021/12/05 04:07:41;;;;;;;0.25;0.20;;;;;;;13.48;43.50;99321.94;4419760;32;20489;-68
2021/12/05 04:10:07;;;;;;;0.45;0.10;;;;;;;13.42;43.53;99334.41;4422894;32;20101;-69
2021/12/05 04:12:33;;;;;;;0.47;0.20;;;;;;;13.51;43.85;99331.47;4422240;32;20436;-68
2021/12/05 04:14:59;;;;;;;1.85;0.20;;;;;;;13.36;43.71;99336.38;4421633;32;20096;-69
2021/12/05 04:17:25;;;;;;;0.85;0.20;;;;;;;13.63;43.33;99339.59;4421529;32;20098;-69
2021/12/05 04:19:57;;;;;;;0.40;0.25;;;;;;;14.00;42.94;99348.31;4416588;32;20413;-68
2021/12/05 04:22:24;;;;;;;0.77;0.30;;;;;;;13.88;42.89;99341.75;4421661;32;20057;-69
2021/12/05 04:24:52;;;;;;;1.00;0.30;;;;;;;13.91;42.90;99348.44;4422395;32;20560;-68
2021/12/05 04:27:18;;;;;;;2.03;0.22;;;;;;;13.94;42.95;99350.28;4422280;32;20127;-69
2021/12/05 04:29:46;;;;;;;0.75;0.30;;;;;;;14.04;42.39;99355.31;4418339;32;20088;-68
2021/12/05 04:32:12;;;;;;;1.10;0.22;;;;;;;14.18;42.33;99367.81;4418998;32;20034;-68
2021/12/05 04:34:38;;;;;;;1.58;0.50;;;;;;;13.61;43.38;99356.28;4420896;32;20314;-69
2021/12/05 04:37:04;;;;;;;0.52;0.20;;;;;;;14.12;42.53;99377.50;4421920;32;20077;-69
2021/12/05 04:39:31;;;;;;;0.85;0.35;;;;;;;13.65;43.66;99373.00;4418569;32;20089;-69
2021/12/05 04:41:58;;;;;;;2.75;0.25;;;;;;;13.66;43.75;99374.59;4421472;32;20090;-69
2021/12/05 04:44:25;;;;;;;0.73;0.30;;;;;;;13.58;44.24;99390.38;4419762;32;20108;-69
2021/12/05 04:46:51;;;;;;;1.85;0.82;;;;;;;13.73;43.68;99389.09;4420755;32;20085;-69
2021/12/05 04:49:16;;;;;;;3.25;0.95;;;;;;;13.61;44.03;99392.22;4418800;32;20104;-69
2021/12/05 04:51:44;;;;;;;1.87;0.50;;;;;;;14.06;43.33;99400.06;4422918;32;20100;-69
2021/12/05 04:54:14;;;;;;;2.03;0.30;;;;;;;14.20;43.12;99395.62;4424327;32;20040;-68
2021/12/05 04:56:40;;;;;;;0.65;0.30;;;;;;;13.45;44.37;99416.16;4421886;32;20521;-69
2021/12/05 04:59:13;;;;;;;1.15;0.30;;;;;;;13.23;44.96;99412.94;4418660;32;20074;-69
2021/12/05 05:01:41;;;;;;;1.80;0.40;;;;;;;12.98;45.52;99415.59;4417062;32;20524;-69
2021/12/05 05:04:21;;;;;;;1.83;0.50;;;;;;;13.68;43.94;99409.56;4420014;32;20041;-69
2021/12/05 05:06:48;;;;;;;1.33;0.30;;;;;;;14.11;43.02;99418.41;4417880;32;20085;-69
2021/12/05 05:09:14;;;;;;;2.55;0.30;;;;;;;13.84;43.38;99420.34;4420823;32;20455;-69
2021/12/05 05:11:41;;;;;;;0.70;0.20;;;;;;;13.70;43.52;99432.47;4421406;32;20075;-69
2021/12/05 05:14:09;;;;;;;1.67;0.40;;;;;;;14.02;43.16;99428.56;4419044;32;20498;-69
2021/12/05 05:16:35;;;;;;;3.08;0.30;;;;;;;13.69;43.90;99435.78;4419875;32;20076;-69
2021/12/05 05:19:03;;;;;;;0.75;0.30;;;;;;;13.85;43.63;99440.91;4418439;32;20105;-69
2021/12/05 05:21:41;;;;;;;1.62;0.32;;;;;;;14.13;43.29;99439.25;4419555;32;20121;-69
2021/12/05 05:27:23;;;;;;;1.05;0.20;;;;;;;13.79;43.80;99446.50;4418921;32;20061;-69
2021/12/05 05:45:03;;;;;;;2.25;1.12;;;;;;;13.99;43.28;99488.94;3979661;32;15025322;-70
2021/12/05 05:48:48;;;;;;;4.97;0.80;;;;;;;14.35;43.06;99501.81;3983737;32;15022471;-70
2021/12/05 05:51:14;;;;;;;2.70;0.40;;;;;;;14.35;43.06;99501.81;4435588;32;20076;-70
2021/12/05 05:53:40;;;;;;;2.45;0.50;;;;;;;13.78;43.61;99497.87;4437219;32;20119;-70
2021/12/05 05:56:12;;;;;;;2.05;0.60;;;;;;;13.46;44.33;99496.06;4436880;32;20073;-70
2021/12/05 06:04:03;;;;;;;2.47;0.70;;;;;;;14.37;42.74;99518.31;4452669;32;20076;-69
2021/12/05 06:06:30;;;;;;;5.37;0.77;;;;;;;14.24;42.55;99515.06;4455175;32;20501;-69
2021/12/05 06:08:57;;;;;;;5.28;1.33;;;;;;;14.27;42.34;99520.50;4453840;32;20077;-69
2021/12/05 06:11:23;;;;;;;3.12;0.50;;;;;;;14.26;42.52;99527.41;4453807;32;20057;-69
2021/12/05 06:13:51;;;;;;;1.80;0.57;;;;;;;14.37;41.99;99533.25;4455059;32;20103;-69
2021/12/05 06:16:17;;;;;;;5.70;0.80;;;;;;;14.29;42.05;99537.00;4452911;32;20072;-69
2021/12/05 06:18:45;;;;;;;3.58;0.65;;;;;;;14.14;42.46;99539.81;4455093;32;20076;-69
2021/12/05 06:21:12;;;;;;;4.60;1.15;;;;;;;13.91;43.17;99544.37;4454734;32;20133;-70
2021/12/05 06:23:38;;;;;;;5.50;0.77;;;;;;;14.40;42.15;99549.25;4452512;32;20073;-69
2021/12/05 06:26:08;;;;;;;6.30;0.93;;;;;;;14.08;42.49;99544.59;4456126;32;20061;-69
2021/12/05 06:31:21;;;;;;;7.15;1.05;;;;;;;13.84;44.45;99555.31;3952957;32;15724619;-70
2021/12/05 06:42:09;;;;;;;7.60;1.08;;;;;;;14.25;42.85;99561.88;3990532;32;15022070;-69
2021/12/05 06:47:25;;;;;;;9.15;1.10;;;;;;;13.72;43.68;99565.63;4445860;32;20048;-69
2021/12/05 06:49:52;;;;;;;6.87;1.00;;;;;;;14.15;42.97;99574.56;4447927;32;20421;-69
2021/12/05 06:52:18;;;;;;;5.57;1.00;;;;;;;14.07;42.79;99571.34;4447449;32;20541;-69
2021/12/05 06:54:44;;;;;;;4.03;0.73;;;;;;;13.95;43.23;99575.25;4444663;32;20037;-69
2021/12/05 06:57:09;;;;;;;6.00;0.77;;;;;;;14.04;42.75;99561.81;4449489;32;20126;-69
2021/12/05 06:59:38;;;;;;;5.10;0.82;;;;;;;14.03;43.33;99585.69;4444495;32;20064;-69
2021/12/05 07:02:05;;;;;;;3.28;0.70;;;;;;;14.08;43.10;99585.00;4447076;32;20085;-70
2021/12/05 07:07:14;;;;;;;3.25;0.75;;;;;;;14.38;42.52;99591.41;3995838;31;15018449;-70
2021/12/05 07:09:41;;;;;;;4.12;0.52;;;;;;;14.38;42.52;99591.41;4459097;32;20058;-70
2021/12/05 07:15:00;;;;;;;5.82;0.70;;;;;;;14.08;42.54;99604.00;4454770;32;20045;-70
2021/12/05 07:22:55;;;;;;;8.98;0.95;;;;;;;14.32;42.30;99621.66;4455495;32;20099;-70
2021/12/05 07:25:34;;;;;;;3.40;0.60;;;;;;;13.53;43.86;99634.16;4458776;32;20068;-70
2021/12/05 07:41:54;;;;;;;6.50;0.62;;;;;;;14.19;42.29;99668.50;4453627;32;20037;-70
2021/12/05 07:44:20;;;;;;;3.97;0.52;;;;;;;14.25;42.03;99672.22;4455286;32;20041;-71
2021/12/05 07:46:47;;;;;;;7.45;0.70;;;;;;;14.13;41.88;99668.41;4454393;32;20508;-69
2021/12/05 07:49:16;;;;;;;3.47;0.57;;;;;;;14.00;42.37;99670.75;4454317;32;20089;-70
2021/12/05 07:51:46;;;;;;;2.42;0.60;;;;;;;14.72;41.46;99681.22;4457473;32;20045;-69
2021/12/05 07:54:27;;;;;;;3.78;0.60;;;;;;;14.09;42.30;99684.81;4455376;32;20515;-69
2021/12/05 07:57:04;;;;;;;6.85;0.95;;;;;;;13.82;42.95;99679.44;4458886;32;20099;-69
2021/12/05 08:16:07;;;;;;;5.57;0.82;;;;;;;13.27;44.89;99713.03;4430261;32;20038;-69
2021/12/05 08:18:33;;;;;;;2.90;0.60;;;;;;;13.42;44.88;99713.84;4430699;32;20125;-70
2021/12/05 08:21:01;;;;;;;3.40;0.98;;;;;;;13.60;44.38;99722.16;4430288;32;20064;-70
2021/12/05 08:23:28;;;;;;;6.90;0.50;;;;;;;13.85;44.18;99735.81;4432235;32;20099;-70
2021/12/05 08:26:04;;;;;;;4.87;1.15;;;;;;;13.72;43.63;99738.09;4432242;32;20089;-70
2021/12/05 09:21:27;;;;;;;8.77;0.80;;;;;;;14.56;43.86;99848.00;4437667;32;20029;-70
2021/12/05 10:07:15;;;;;;;3.15;0.40;;;;;;;14.72;43.56;99944.59;4439114;32;21181;-69
2021/12/05 10:12:51;;;;;;;2.50;0.62;;;;;;;15.16;43.06;99942.56;3983601;32;15022700;-71
2021/12/05 10:38:06;;;;;;;3.20;0.70;;;;;;;15.10;44.75;99989.84;4436511;32;20089;-70
2021/12/05 10:40:46;;;;;;;3.30;0.80;;;;;;;15.06;44.60;99980.78;4430131;32;20092;-70
2021/12/05 10:43:16;;;;;;;5.03;0.85;;;;;;;14.65;45.33;99983.84;4434072;32;20385;-70
2021/12/05 10:51:01;;;;;;;5.97;1.35;;;;;;;16.06;42.86;100013.66;3980428;32;15023497;-70
2021/12/05 11:09:34;;;;;;;5.97;1.10;;;;;;;15.92;43.71;100035.12;3983568;32;15023403;-69
2021/12/05 11:12:08;;;;;;;5.35;0.60;;;;;;;15.92;43.71;100035.12;4437225;32;20095;-70
2021/12/05 11:14:38;;;;;;;5.93;1.40;;;;;;;15.42;43.87;100022.97;4436011;32;20081;-69
2021/12/05 11:17:09;;;;;;;2.80;0.70;;;;;;;15.63;43.13;100032.34;4434737;32;20055;-70
2021/12/05 11:19:59;;;;;;;5.70;0.98;;;;;;;16.05;42.62;100044.13;4432424;32;20109;-70
2021/12/05 11:22:28;;;;;;;5.15;1.15;;;;;;;15.83;42.83;100044.53;4432456;32;20125;-70
2021/12/05 11:24:57;;;;;;;3.22;0.90;;;;;;;15.69;43.33;100050.22;4431101;32;20401;-69
2021/12/05 11:27:44;;;;;;;3.10;0.98;;;;;;;16.42;42.15;100062.22;4436993;32;20110;-69
2021/12/05 11:38:21;;;;;;;2.67;0.62;;;;;;;16.36;42.20;100080.44;3981073;32;15031656;-70
2021/12/05 11:46:17;;;;;;;5.15;1.05;;;;;;;16.28;42.25;100088.59;3983981;32;15031762;-71
2021/12/05 11:59:26;;;;;;;8.40;1.60;;;;;;;16.05;42.69;100100.09;3980077;32;15022356;-70
2021/12/05 12:02:13;;;;;;;5.15;0.80;;;;;;;16.05;42.69;100100.09;4432307;32;20109;-70
2021/12/05 12:07:41;;;;;;;6.95;1.15;;;;;;;16.05;42.72;100094.41;3983175;32;15022183;-69
2021/12/05 12:15:29;;;;;;;6.15;1.95;;;;;;;16.50;42.74;100120.19;3996765;31;15016541;-70
2021/12/05 12:18:06;;;;;;;11.35;5.25;;;;;;;16.50;42.74;100120.19;4453452;32;20092;-71
2021/12/05 12:20:33;;;;;;;6.15;1.20;;;;;;;16.75;42.14;100124.44;4450719;32;20084;-69
2021/12/05 12:23:00;;;;;;;7.20;1.62;;;;;;;16.80;41.57;100130.19;4437956;32;20112;-69
2021/12/05 12:25:30;;;;;;;6.50;1.33;;;;;;;17.42;40.48;100121.91;4455296;32;20049;-71
2021/12/05 12:27:57;;;;;;;4.65;1.15;;;;;;;17.67;40.00;100135.41;4454069;32;20507;-71
2021/12/05 12:30:26;;;;;;;6.28;1.55;;;;;;;17.67;39.74;100140.28;4452361;32;20045;-69
2021/12/05 12:32:58;;;;;;;7.55;1.30;;;;;;;17.76;39.98;100140.12;4451220;32;20098;-69
2021/12/05 12:35:27;;;;;;;4.55;1.40;;;;;;;17.95;39.71;100137.75;4453290;32;20153;-69
2021/12/05 12:38:14;;;;;;;3.95;1.33;;;;;;;18.27;38.93;100133.59;4452540;32;20053;-69
2021/12/05 12:54:45;;;;;;;5.47;1.58;;;;;;;18.33;39.16;100158.00;3983283;32;15021592;-70
2021/12/05 12:57:16;;;;;;;3.78;1.73;;;;;;;18.33;39.16;100158.00;4436023;32;20090;-71
2021/12/05 12:59:58;;;;;;;7.07;1.70;;;;;;;18.07;39.57;100171.50;4432699;32;20134;-71
2021/12/05 13:02:55;;;;;;;6.12;1.73;;;;;;;17.44;40.40;100166.94;4435020;32;20045;-71
2021/12/05 13:11:12;;;;;;;8.10;2.05;;;;;;;17.86;39.91;100182.16;4432614;32;20099;-70
2021/12/05 13:13:43;;;;;;;17.60;2.25;;;;;;;18.05;39.76;100184.69;4436884;32;20081;-70
2021/12/05 13:16:18;;;;;;;7.00;1.92;;;;;;;18.31;39.39;100194.75;4433854;32;20128;-70
2021/12/05 13:18:56;;;;;;;9.15;1.70;;;;;;;18.84;38.48;100199.87;4433893;32;20096;-70
2021/12/05 13:21:42;;;;;;;8.90;1.80;;;;;;;18.81;38.30;100195.94;4433546;32;20139;-70
2021/12/05 13:27:06;;;;;;;4.10;1.83;;;;;;;19.12;38.17;100226.47;3981458;32;15021539;-70
2021/12/05 13:29:36;;;;;;;7.80;1.85;;;;;;;19.12;38.17;100226.47;4435876;32;20025;-70
2021/12/05 13:32:24;;;;;;;8.85;1.92;;;;;;;18.53;38.49;100231.25;4434971;32;20124;-70
2021/12/05 13:34:54;;;;;;;10.52;2.22;;;;;;;18.42;38.85;100228.28;4438519;32;20399;-70
2021/12/05 13:42:55;;;;;;;11.25;2.17;;;;;;;18.99;38.30;100254.66;3981149;32;15022660;-68
2021/12/05 13:50:58;;;;;;;6.82;2.35;;;;;;;18.09;39.65;100271.44;3980580;32;15022593;-70
2021/12/05 13:53:28;;;;;;;10.68;2.80;;;;;;;17.55;40.77;100272.38;4437923;32;20080;-70
2021/12/05 14:06:58;;;;;;;13.13;3.33;;;;;;;17.54;41.06;100291.50;3983991;32;15026750;-70
2021/12/05 14:09:47;;;;;;;10.63;2.60;;;;;;;17.75;41.12;100295.91;4435930;32;20067;-70
2021/12/05 14:12:18;;;;;;;7.30;2.15;;;;;;;17.92;40.46;100301.81;4434004;32;20487;-70
2021/12/05 14:20:00;;;;;;;4.80;2.55;;;;;;;18.16;40.51;100322.25;3981137;32;15023876;-70
2021/12/05 14:22:30;;;;;;;7.70;2.72;;;;;;;18.16;40.51;100322.25;4437030;32;20077;-70
2021/12/05 14:24:58;;;;;;;11.50;3.05;;;;;;;17.56;40.97;100322.28;4429919;32;20084;-70
2021/12/05 14:27:28;;;;;;;6.68;2.03;;;;;;;17.64;40.77;100320.56;4435057;32;20088;-70
2021/12/05 14:29:55;;;;;;;9.98;2.28;;;;;;;17.61;41.08;100321.56;4432256;32;20029;-70
2021/12/05 14:32:25;;;;;;;8.00;1.90;;;;;;;17.24;41.62;100323.31;4434782;32;20071;-70
2021/12/05 14:34:53;;;;;;;9.07;2.33;;;;;;;17.69;40.81;100322.72;4436069;32;20096;-71
2021/12/05 14:37:22;;;;;;;5.68;1.83;;;;;;;17.38;41.28;100326.16;4436602;32;20059;-70
2021/12/05 14:39:52;;;;;;;6.78;1.50;;;;;;;16.89;42.05;100334.69;4434753;32;20066;-70
2021/12/05 14:42:22;;;;;;;8.18;1.90;;;;;;;17.19;41.91;100335.41;4434793;32;20135;-70
2021/12/05 14:44:53;;;;;;;7.43;1.77;;;;;;;17.12;42.05;100339.44;4433828;32;20033;-70
2021/12/05 14:47:22;;;;;;;6.93;1.77;;;;;;;17.09;42.29;100342.50;4433781;32;20145;-70
2021/12/05 14:49:59;;;;;;;10.70;2.80;;;;;;;17.46;41.26;100343.62;4434980;32;20088;-70
2021/12/05 14:52:29;;;;;;;7.12;2.12;;;;;;;17.70;40.81;100344.19;4437973;32;20434;-71
2021/12/05 14:54:56;;;;;;;6.62;2.33;;;;;;;17.82;40.48;100348.75;4436618;32;20068;-69
2021/12/05 14:57:24;;;;;;;9.23;2.00;;;;;;;17.47;40.94;100351.66;4433628;32;20526;-70
2021/12/05 14:59:58;;;;;;;13.25;5.15;;;;;;;17.40;41.10;100354.88;4430177;32;20503;-70
2021/12/05 15:02:24;;;;;;;10.57;1.95;;;;;;;17.43;40.92;100351.06;4428126;32;20476;-69
2021/12/05 15:04:53;;;;;;;9.05;2.42;;;;;;;17.48;40.75;100356.06;4433367;32;20152;-69
2021/12/05 15:07:21;;;;;;;4.78;2.12;;;;;;;17.44;41.15;100354.69;4432753;32;20021;-69
2021/12/05 15:09:51;;;;;;;5.93;2.17;;;;;;;17.68;40.85;100358.16;4434595;32;20549;-70
2021/12/05 15:12:23;;;;;;;10.98;2.37;;;;;;;17.54;40.96;100362.63;4436086;32;20402;-70
2021/12/05 15:14:52;;;;;;;9.93;2.30;;;;;;;17.81;40.62;100365.06;4433110;32;20077;-70
2021/12/05 15:17:22;;;;;;;4.55;1.75;;;;;;;17.81;40.38;100367.91;4433126;32;20072;-70
2021/12/05 15:19:55;;;;;;;7.75;2.40;;;;;;;17.74;40.32;100348.41;4431753;32;20462;-70
2021/12/05 15:22:21;;;;;;;3.70;2.05;;;;;;;17.65;39.82;100368.44;4432297;32;20089;-70
2021/12/05 15:25:06;;;;;;;9.75;2.47;;;;;;;17.76;39.71;100368.63;4432734;32;20528;-70
2021/12/05 15:27:33;;;;;;;8.55;2.20;;;;;;;18.07;39.42;100376.50;4435347;32;20088;-70
2021/12/05 15:30:07;;;;;;;6.05;1.90;;;;;;;17.83;39.67;100378.81;4430183;32;20073;-70
2021/12/05 15:32:33;;;;;;;7.72;1.92;;;;;;;18.00;39.34;100379.00;4423454;32;20251;-70
2021/12/05 15:35:04;;;;;;;9.30;2.22;;;;;;;17.60;40.06;100374.06;4423936;32;20415;-70
2021/12/05 15:37:31;;;;;;;6.25;2.35;;;;;;;17.30;40.78;100381.88;4425924;32;20089;-70
2021/12/05 15:39:58;;;;;;;9.13;2.33;;;;;;;17.51;40.56;100392.06;4421922;32;20526;-70
2021/12/05 15:42:28;;;;;;;6.20;2.40;;;;;;;17.46;40.34;100395.59;4424342;32;20069;-70
2021/12/05 15:44:56;;;;;;;6.97;2.62;;;;;;;17.57;40.38;100398.62;4426428;32;20033;-70
2021/12/05 15:47:27;;;;;;;6.90;2.08;;;;;;;17.31;40.91;100396.87;4425575;32;20042;-70
2021/12/05 15:52:36;;;;;;;6.40;2.47;;;;;;;17.84;39.93;100402.91;3953853;32;15723353;-70
2021/12/05 15:55:09;;;;;;;4.75;2.15;;;;;;;17.85;39.93;100405.50;4431314;32;20103;-70
2021/12/05 15:57:39;;;;;;;6.47;2.10;;;;;;;17.39;40.42;100413.03;4431138;32;21270;-70
2021/12/05 16:00:13;;;;;;;7.82;2.42;;;;;;;17.12;41.10;100427.59;4431376;32;20081;-69
2021/12/05 16:02:41;;;;;;;9.70;2.72;;;;;;;16.99;41.50;100429.16;4431623;32;20077;-69
2021/12/05 16:05:15;;;;;;;11.32;4.65;;;;;;;16.88;42.05;100438.25;4429302;32;20153;-69
2021/12/05 16:07:41;;;;;;;12.20;4.47;;;;;;;16.89;42.20;100433.37;4430890;32;20132;-69
2021/12/05 16:10:11;;;;;;;9.30;3.15;;;;;;;16.74;42.94;100446.78;4428151;32;20120;-68
2021/12/05 16:12:39;;;;;;;9.60;2.70;;;;;;;16.80;43.47;100442.78;4432263;32;20081;-68
2021/12/05 16:15:06;;;;;;;8.23;2.78;;;;;;;16.91;43.45;100457.19;4430202;32;20385;-68
2021/12/05 16:17:31;;;;;;;7.00;3.25;;;;;;;16.73;44.08;100467.94;4428875;32;20103;-68
2021/12/05 16:20:21;;;;;;;10.27;3.78;;;;;;;16.63;44.37;100464.37;4432543;32;20133;-68
2021/12/05 16:23:11;;;;;;;9.98;3.40;;;;;;;17.02;43.73;100467.97;4432800;32;20442;-68
2021/12/05 16:25:46;;;;;;;10.85;2.95;;;;;;;16.91;43.76;100468.53;4431187;32;20494;-68
2021/12/05 16:28:13;;;;;;;10.02;3.22;;;;;;;16.69;43.39;100473.81;4430225;32;20042;-68
2021/12/05 16:30:44;;;;;;;7.47;2.90;;;;;;;16.58;44.11;100473.59;4430350;32;20085;-69
2021/12/05 16:33:14;;;;;;;8.65;2.47;;;;;;;16.36;44.20;100469.50;4429563;32;20132;-69
2021/12/05 16:35:46;;;;;;;6.78;2.62;;;;;;;15.98;44.78;100473.84;4430237;32;20033;-69
2021/12/05 16:38:34;;;;;;;9.73;3.10;;;;;;;16.25;44.15;100481.41;4430821;32;20407;-69
2021/12/05 16:46:44;;;;;;;7.93;2.97;;;;;;;16.62;43.87;100513.19;3986181;32;15021828;-70
2021/12/05 16:49:16;;;;;;;12.48;3.28;;;;;;;16.62;43.87;100513.19;4436042;32;20486;-70
2021/12/05 16:54:24;;;;;;;10.98;4.50;;;;;;;16.69;43.69;100527.03;3984884;32;15025831;-69
2021/12/05 16:59:38;;;;;;;8.77;3.28;;;;;;;16.29;44.26;100533.09;3982007;32;15021334;-70
2021/12/05 17:02:27;;;;;;;6.22;3.30;;;;;;;15.98;44.27;100533.44;4438669;32;20086;-69
2021/12/05 17:18:37;;;;;;;17.67;6.32;;;;;;;16.54;43.72;100555.37;3979326;32;15023859;-68
2021/12/05 17:21:21;;;;;;;20.25;7.43;;;;;;;16.54;43.72;100555.37;4434894;32;20439;-70
2021/12/05 17:23:52;;;;;;;13.20;5.97;;;;;;;16.35;43.69;100555.97;4431529;32;20096;-68
2021/12/05 17:26:42;;;;;;;15.60;6.95;;;;;;;16.28;43.91;100551.41;4434203;32;20136;-68
2021/12/05 17:29:12;;;;;;;29.52;6.18;;;;;;;16.15;44.20;100562.22;4434392;32;20057;-69
2021/12/05 17:31:42;;;;;;;12.63;4.55;;;;;;;16.49;43.56;100564.56;4433531;32;20077;-69
2021/12/05 17:34:12;;;;;;;13.02;4.25;;;;;;;16.30;43.85;100568.78;4436747;32;20102;-69
2021/12/05 17:36:42;;;;;;;15.48;5.12;;;;;;;16.39;44.01;100565.87;4434529;32;20140;-69
2021/12/05 17:41:47;;;;;;;20.05;8.75;;;;;;;16.63;43.78;100574.44;3980652;32;15023224;-69
2021/12/05 17:44:16;;;;;;;16.70;5.70;;;;;;;16.63;43.78;100574.44;4435826;32;20124;-70
2021/12/05 17:46:42;;;;;;;17.67;6.82;;;;;;;16.38;43.89;100580.56;4436155;32;20073;-70
2021/12/05 17:49:10;;;;;;;21.52;8.85;;;;;;;15.79;45.25;100587.91;4435323;32;20144;-69
2021/12/05 17:51:38;;;;;;;16.08;5.90;;;;;;;16.12;44.87;100587.94;4435193;32;20034;-69
2021/12/05 17:54:07;;;;;;;16.33;5.37;;;;;;;15.73;45.36;100593.47;4434674;32;20100;-69
2021/12/05 17:56:44;;;;;;;11.88;5.10;;;;;;;16.02;44.98;100595.72;4435105;32;21067;-69
2021/12/05 17:59:26;;;;;;;13.93;5.03;;;;;;;15.88;45.07;100591.53;4436352;32;20157;-69
2021/12/05 18:04:42;;;;;;;11.45;5.00;;;;;;;15.99;44.80;100579.66;4435120;32;20165;-69
2021/12/05 18:07:10;;;;;;;16.83;5.55;;;;;;;15.79;45.28;100594.38;4436479;32;20069;-69
2021/12/05 18:09:35;;;;;;;20.42;6.28;;;;;;;16.10;44.67;100594.09;4433745;32;20381;-69
2021/12/05 18:12:02;;;;;;;12.40;4.50;;;;;;;15.68;45.03;100596.16;4433810;32;20038;-69
2021/12/05 18:14:28;;;;;;;15.13;5.12;;;;;;;15.38;45.74;100600.00;4435814;32;20519;-69
2021/12/05 18:16:54;;;;;;;11.60;4.97;;;;;;;15.45;45.50;100606.13;4435784;32;20455;-69
2021/12/05 18:19:20;;;;;;;13.50;4.93;;;;;;;15.37;45.76;100598.44;4434586;32;20543;-69
2021/12/05 18:21:49;;;;;;;13.95;4.75;;;;;;;14.93;46.52;100602.81;4433886;32;20903;-69
2021/12/05 18:24:18;;;;;;;10.18;3.97;;;;;;;15.41;45.61;100614.00;4434468;32;20069;-69
2021/12/05 18:26:45;;;;;;;10.82;3.80;;;;;;;15.41;46.06;100616.84;4434618;32;20081;-69
2021/12/05 18:29:12;;;;;;;11.25;4.32;;;;;;;15.41;46.09;100616.84;4434359;32;20572;-69
2021/12/05 18:31:39;;;;;;;10.13;4.03;;;;;;;15.40;46.24;100614.50;4430611;32;20120;-69
2021/12/05 18:34:10;;;;;;;9.25;4.50;;;;;;;15.40;46.48;100615.28;4435355;32;20064;-69
2021/12/05 18:36:39;;;;;;;11.35;4.30;;;;;;;15.68;45.86;100618.84;4436687;32;20073;-69
2021/12/05 18:39:10;;;;;;;9.30;4.10;;;;;;;15.67;46.10;100618.06;4434413;32;20097;-69
2021/12/05 18:41:37;;;;;;;20.55;5.85;;;;;;;15.44;46.15;100615.12;4434495;32;20072;-69
2021/12/05 18:44:12;;;;;;;13.43;4.00;;;;;;;15.28;46.26;100626.75;4435234;32;20141;-69
2021/12/05 18:46:38;;;;;;;9.80;4.22;;;;;;;15.37;46.19;100613.37;4435444;32;20137;-69
2021/12/05 18:49:06;;;;;;;9.80;3.87;;;;;;;15.27;46.14;100622.34;4431722;32;20117;-69
2021/12/05 18:51:33;;;;;;;12.27;4.15;;;;;;;15.10;46.24;100616.19;4429300;32;20391;-69
2021/12/05 18:53:59;;;;;;;11.12;4.35;;;;;;;15.05;46.32;100610.37;4422459;32;20398;-69
2021/12/05 18:56:27;;;;;;;14.25;4.37;;;;;;;14.89;46.57;100610.69;4423500;32;20470;-69
2021/12/05 18:58:54;;;;;;;15.88;6.10;;;;;;;14.94;46.45;100618.59;4426604;32;20049;-69
2021/12/05 19:04:46;;;;;;;12.23;4.53;;;;;;;15.05;46.49;100616.84;4421036;32;20160;-69
2021/12/05 19:07:08;;;;;;;13.77;4.05;;;;;;;15.01;46.71;100615.44;4425016;32;20046;-69
2021/12/05 19:12:27;;;;;;;15.88;5.72;;;;;;;15.51;46.59;100628.97;3984163;32;15023251;-69
2021/12/05 19:14:58;;;;;;;13.10;4.80;;;;;;;15.51;46.59;100628.97;4439861;32;20073;-69
2021/12/05 19:17:30;;;;;;;12.93;5.18;;;;;;;15.29;46.88;100631.16;4438681;32;20066;-69
2021/12/05 19:20:10;;;;;;;19.95;5.62;;;;;;;15.18;47.03;100633.69;4438340;32;20038;-69
2021/12/05 19:22:37;;;;;;;15.77;6.12;;;;;;;15.36;46.71;100639.34;4437282;32;20063;-69
2021/12/05 19:25:09;;;;;;;15.35;5.55;;;;;;;15.33;46.93;100634.63;4439079;32;20029;-69
2021/12/05 19:27:35;;;;;;;14.38;5.20;;;;;;;15.65;46.18;100642.50;4439327;32;20163;-69